Time;durP1;ratioP1;P1;durP2;ratioP2;P2;SDS_P1;SDS_P2;PMS_P1;PMS_P2;Temp;Humidity;BMP_temperature;BMP_pressure;BME280_temperature;BME280_humidity;BME280_pressure;Samples;Min_cycle;Max_cycle;Signal;HPM_P1;HPM_P2
2021/08/06 00:00:15;;;;;;;18.52;5.97;;;;;;;19.32;67.70;100087.16;5073289;28;20028;-62
2021/08/06 00:02:41;;;;;;;17.92;5.90;;;;;;;19.32;67.99;100089.81;5072770;28;20025;-63
2021/08/06 00:05:07;;;;;;;17.90;5.90;;;;;;;19.27;67.80;100087.34;5073034;28;20426;-62
2021/08/06 00:07:33;;;;;;;16.85;5.80;;;;;;;19.28;67.98;100082.84;5073080;28;20089;-62
2021/08/06 00:09:58;;;;;;;18.45;6.43;;;;;;;19.27;67.83;100087.34;5073130;28;20375;-63
2021/08/06 00:12:23;;;;;;;18.50;5.90;;;;;;;19.23;68.52;100090.25;5071301;28;20080;-62
2021/08/06 00:14:49;;;;;;;18.58;6.05;;;;;;;19.24;68.05;100082.13;5072753;28;20032;-63
2021/08/06 00:17:14;;;;;;;19.33;6.18;;;;;;;19.25;68.32;100075.84;5072976;28;20024;-63
2021/08/06 00:19:40;;;;;;;17.35;5.97;;;;;;;19.23;68.30;100079.53;5072988;28;20032;-62
2021/08/06 00:22:05;;;;;;;18.45;5.63;;;;;;;19.23;68.14;100085.75;5072810;28;20029;-63
2021/08/06 00:24:30;;;;;;;17.48;5.75;;;;;;;19.23;68.01;100079.53;5072861;28;20078;-63
2021/08/06 00:26:56;;;;;;;17.02;5.53;;;;;;;19.20;67.92;100068.94;5072744;28;20020;-63
2021/08/06 00:29:22;;;;;;;18.08;5.75;;;;;;;19.17;68.18;100076.16;5072574;28;20027;-62
2021/08/06 00:31:47;;;;;;;19.23;5.70;;;;;;;19.15;67.87;100078.06;5072512;28;20029;-63
2021/08/06 00:34:13;;;;;;;18.65;6.20;;;;;;;19.20;67.92;100076.97;5072627;28;20017;-63
2021/08/06 00:36:38;;;;;;;18.33;6.10;;;;;;;19.19;67.55;100069.88;5072371;28;20036;-63
2021/08/06 00:39:04;;;;;;;19.02;6.10;;;;;;;19.15;68.15;100071.84;5072355;28;20099;-62
2021/08/06 00:41:29;;;;;;;18.85;6.25;;;;;;;19.19;68.05;100064.50;5072817;28;20029;-64
2021/08/06 00:43:54;;;;;;;20.08;6.80;;;;;;;19.19;68.26;100054.66;5072461;28;20070;-65
2021/08/06 00:46:20;;;;;;;20.65;7.53;;;;;;;19.15;68.22;100053.09;5072687;28;20028;-64
2021/08/06 00:48:50;;;;;;;20.50;7.43;;;;;;;19.13;67.96;100058.50;5072824;28;20024;-64
2021/08/06 00:51:16;;;;;;;20.38;7.18;;;;;;;19.10;68.23;100057.75;5072648;28;20017;-65
2021/08/06 00:53:41;;;;;;;19.63;6.82;;;;;;;19.04;68.76;100066.06;5068459;28;20475;-65
2021/08/06 00:56:08;;;;;;;20.50;6.93;;;;;;;19.00;69.04;100057.28;5072616;28;20028;-65
2021/08/06 00:58:33;;;;;;;19.05;6.57;;;;;;;18.92;69.27;100054.06;5071047;28;20087;-66
2021/08/06 01:00:59;;;;;;;19.42;5.85;;;;;;;18.86;69.37;100060.56;5072527;28;20029;-65
2021/08/06 01:03:36;;;;;;;20.67;6.20;;;;;;;18.81;69.21;100063.41;5072149;28;20025;-64
2021/08/06 01:06:10;;;;;;;18.02;5.93;;;;;;;18.77;70.41;100056.44;5072416;28;20427;-65
2021/08/06 01:09:03;;;;;;;17.65;5.63;;;;;;;18.72;70.29;100050.38;5072076;28;20032;-65
2021/08/06 01:11:30;;;;;;;;;;;;;;;18.71;68.52;100048.66;5070932;28;20478;-64
2021/08/06 01:13:58;;;;;;;17.30;5.82;;;;;;;18.59;71.16;100049.16;5071969;28;20340;-65
2021/08/06 01:16:30;;;;;;;17.85;5.50;;;;;;;18.52;71.72;100039.63;5072272;28;20025;-65
2021/08/06 01:19:07;;;;;;;;;;;;;;;18.52;69.66;100051.22;5072552;28;20029;-64
2021/08/06 01:21:44;;;;;;;16.75;5.45;;;;;;;18.42;71.08;100045.38;5072371;28;19935;-64
2021/08/06 01:24:13;;;;;;;16.90;5.43;;;;;;;18.35;71.91;100051.91;5072137;28;20082;-65
2021/08/06 01:26:41;;;;;;;17.95;5.60;;;;;;;18.33;72.48;100047.56;5072043;28;20078;-64
2021/08/06 01:29:06;;;;;;;19.42;5.63;;;;;;;18.32;72.88;100054.72;5072433;28;20539;-63
2021/08/06 01:31:32;;;;;;;18.02;5.47;;;;;;;18.36;72.77;100044.75;5072254;28;20035;-62
2021/08/06 01:33:57;;;;;;;16.92;5.40;;;;;;;18.38;72.96;100049.13;5072151;28;20383;-63
2021/08/06 01:36:23;;;;;;;18.30;5.57;;;;;;;18.40;72.64;100051.72;5071952;28;20060;-62
2021/08/06 01:38:49;;;;;;;17.02;5.35;;;;;;;18.38;72.81;100045.56;5071823;28;20475;-63
2021/08/06 01:41:31;;;;;;;18.02;5.50;;;;;;;18.38;71.94;100037.56;5072097;28;20025;-63
2021/08/06 01:44:15;;;;;;;15.82;4.93;;;;;;;18.36;71.76;100039.41;5070330;28;20077;-63
2021/08/06 01:46:43;;;;;;;16.85;5.00;;;;;;;18.37;72.65;100031.31;5071958;28;20037;-63
2021/08/06 01:49:10;;;;;;;16.00;4.68;;;;;;;18.38;72.06;100041.09;5072490;28;20031;-63
2021/08/06 01:51:41;;;;;;;15.13;4.70;;;;;;;18.41;72.50;100037.41;5075460;28;20029;-62
2021/08/06 01:54:09;;;;;;;15.95;4.80;;;;;;;18.42;72.63;100029.34;5075382;28;20031;-62
2021/08/06 01:56:35;;;;;;;16.45;4.95;;;;;;;18.43;72.19;100036.41;5075382;28;20055;-63
2021/08/06 01:59:02;;;;;;;15.77;4.60;;;;;;;18.43;72.40;100031.06;5075278;28;20375;-63
2021/08/06 02:01:27;;;;;;;14.77;4.20;;;;;;;18.46;71.53;100028.28;5075466;28;20055;-63
2021/08/06 02:03:53;;;;;;;15.38;4.50;;;;;;;18.42;72.28;100023.97;5075212;28;20021;-63
2021/08/06 02:06:18;;;;;;;14.82;4.28;;;;;;;18.42;72.46;100021.31;5075224;28;20029;-63
2021/08/06 02:08:44;;;;;;;14.80;4.38;;;;;;;18.38;72.66;100016.16;5075172;28;20024;-63
2021/08/06 02:11:10;;;;;;;14.68;4.22;;;;;;;18.37;72.91;100009.91;5075308;28;20023;-62
2021/08/06 02:13:37;;;;;;;15.07;4.35;;;;;;;18.37;72.96;100004.56;5074555;28;20057;-63
2021/08/06 02:16:04;;;;;;;16.02;4.57;;;;;;;18.38;72.94;100011.66;5075167;28;20036;-62
2021/08/06 02:18:32;;;;;;;15.15;4.78;;;;;;;18.42;72.75;100013.28;5074963;28;20037;-63
2021/08/06 02:21:01;;;;;;;16.63;4.68;;;;;;;18.43;72.71;100004.28;5074746;28;20029;-62
2021/08/06 02:23:28;;;;;;;15.27;4.40;;;;;;;18.42;72.71;99999.91;5075104;28;20436;-63
2021/08/06 02:25:55;;;;;;;15.40;4.68;;;;;;;18.38;72.40;100011.66;5074686;28;20459;-62
2021/08/06 02:28:22;;;;;;;14.75;4.70;;;;;;;18.30;73.55;100005.75;5074754;28;20048;-62
2021/08/06 02:30:48;;;;;;;13.60;4.43;;;;;;;18.29;73.70;100001.34;5075199;28;20438;-62
2021/08/06 02:33:14;;;;;;;14.32;4.38;;;;;;;18.27;74.47;100001.38;5074726;28;20360;-62
2021/08/06 02:35:40;;;;;;;11.70;4.07;;;;;;;18.14;75.35;99999.28;5074574;28;20024;-62
2021/08/06 02:38:05;;;;;;;14.52;4.22;;;;;;;18.09;75.75;100000.34;5074915;28;20028;-62
2021/08/06 02:40:31;;;;;;;14.73;4.22;;;;;;;17.94;77.88;99992.94;5074408;28;20028;-63
2021/08/06 02:42:56;;;;;;;13.10;3.90;;;;;;;17.95;77.48;99997.34;5074270;28;20517;-64
2021/08/06 02:45:22;;;;;;;15.68;4.10;;;;;;;17.89;80.81;100000.22;5074891;28;20029;-65
2021/08/06 02:47:47;;;;;;;15.02;4.18;;;;;;;17.47;83.96;100008.97;5074450;28;20017;-63
2021/08/06 02:50:13;;;;;;;15.18;4.22;;;;;;;17.10;87.94;99995.16;5074345;28;20028;-65
2021/08/06 02:52:40;;;;;;;15.20;4.45;;;;;;;16.91;92.88;99997.63;5074447;28;20028;-63
2021/08/06 02:55:06;;;;;;;14.60;4.18;;;;;;;16.81;92.69;99991.69;5074353;28;20024;-65
2021/08/06 02:57:31;;;;;;;13.85;4.30;;;;;;;16.83;92.22;99997.84;5074372;28;20056;-65
2021/08/06 02:59:56;;;;;;;15.00;4.25;;;;;;;16.74;96.88;99996.34;5074140;28;20108;-64
2021/08/06 03:02:22;;;;;;;14.98;4.32;;;;;;;16.61;98.11;100000.38;5073293;28;20024;-63
2021/08/06 03:04:47;;;;;;;15.27;4.38;;;;;;;16.50;100.00;99999.88;5074063;28;20048;-64
2021/08/06 03:07:12;;;;;;;16.75;4.70;;;;;;;16.45;100.00;99993.81;5074120;28;20047;-64
2021/08/06 03:09:38;;;;;;;16.98;4.80;;;;;;;16.42;100.00;99988.59;5073730;28;20012;-64
2021/08/06 03:12:03;;;;;;;16.70;4.70;;;;;;;16.35;100.00;99983.47;5074053;28;20103;-64
2021/08/06 03:14:29;;;;;;;16.38;4.82;;;;;;;16.37;100.00;99975.41;5073689;28;20036;-63
2021/08/06 03:16:54;;;;;;;13.52;4.30;;;;;;;16.39;100.00;99986.91;5073732;28;20036;-65
2021/08/06 03:19:19;;;;;;;17.40;4.75;;;;;;;16.36;100.00;99979.00;5073821;28;20039;-64
2021/08/06 03:21:45;;;;;;;16.30;4.55;;;;;;;16.41;100.00;99981.50;5073916;28;20081;-62
2021/08/06 03:24:10;;;;;;;13.20;4.30;;;;;;;16.37;100.00;99973.59;5073849;28;20066;-62
2021/08/06 03:26:35;;;;;;;14.10;4.10;;;;;;;16.41;100.00;99976.16;5073697;28;20379;-62
2021/08/06 03:29:01;;;;;;;15.52;4.18;;;;;;;16.42;100.00;99972.59;5073561;28;20395;-62
2021/08/06 03:31:26;;;;;;;15.32;4.30;;;;;;;16.40;100.00;99972.63;5073417;28;20099;-63
2021/08/06 03:33:51;;;;;;;13.65;4.20;;;;;;;16.38;100.00;99972.69;5073508;28;20036;-62
2021/08/06 03:36:17;;;;;;;14.30;4.00;;;;;;;16.37;100.00;99970.94;5073419;28;20031;-62
2021/08/06 03:38:43;;;;;;;13.48;4.00;;;;;;;16.37;100.00;99970.94;5073548;28;20025;-62
2021/08/06 03:41:08;;;;;;;14.00;4.38;;;;;;;16.38;100.00;99966.47;5073584;28;20032;-63
2021/08/06 03:43:34;;;;;;;12.65;3.97;;;;;;;16.36;100.00;99971.84;5073499;28;20418;-62
2021/08/06 03:45:59;;;;;;;14.40;4.20;;;;;;;16.40;100.00;99969.97;5073372;28;20447;-63
2021/08/06 03:48:24;;;;;;;14.80;4.25;;;;;;;16.41;100.00;99968.16;5073274;28;20020;-62
2021/08/06 03:50:50;;;;;;;16.00;4.53;;;;;;;16.41;100.00;99969.06;5073157;28;20383;-63
2021/08/06 03:53:15;;;;;;;13.43;3.90;;;;;;;16.39;100.00;99970.88;5073330;28;20021;-62
2021/08/06 03:55:41;;;;;;;15.23;4.20;;;;;;;16.42;100.00;99977.91;5073220;28;20459;-62
2021/08/06 03:58:07;;;;;;;13.65;4.00;;;;;;;16.37;100.00;99968.28;5072915;28;20467;-63
2021/08/06 04:00:34;;;;;;;12.63;3.83;;;;;;;16.41;100.00;99974.41;5073385;28;20063;-63
2021/08/06 04:03:00;;;;;;;13.98;4.10;;;;;;;16.46;100.00;99974.22;5072952;28;20024;-62
2021/08/06 04:05:25;;;;;;;14.32;4.22;;;;;;;16.42;100.00;99969.94;5072915;28;20078;-64
2021/08/06 04:07:51;;;;;;;16.42;4.18;;;;;;;16.37;100.00;99965.59;5073026;28;20475;-64
2021/08/06 04:10:18;;;;;;;15.30;4.20;;;;;;;16.25;100.00;99970.47;5073182;28;20098;-65
2021/08/06 04:12:46;;;;;;;20.13;4.63;;;;;;;16.19;100.00;99977.78;5068211;28;20042;-64
2021/08/06 04:15:12;;;;;;;18.40;4.80;;;;;;;16.10;100.00;99978.03;5072820;28;20052;-64
2021/08/06 04:17:37;;;;;;;17.60;5.13;;;;;;;16.09;100.00;99975.44;5072718;28;20459;-64
2021/08/06 04:20:03;;;;;;;16.40;4.78;;;;;;;16.04;100.00;99973.78;5071303;28;20119;-63
2021/08/06 04:22:29;;;;;;;17.15;5.38;;;;;;;16.04;100.00;99972.91;5072889;28;20020;-64
2021/08/06 04:24:54;;;;;;;18.13;4.93;;;;;;;15.99;100.00;99978.41;5072566;28;20066;-64
2021/08/06 04:27:19;;;;;;;18.88;5.30;;;;;;;16.08;100.00;99973.72;5072492;28;20028;-65
2021/08/06 04:29:44;;;;;;;18.02;5.25;;;;;;;15.91;100.00;99977.75;5073130;28;20028;-65
2021/08/06 04:32:10;;;;;;;17.02;5.00;;;;;;;15.91;100.00;99975.09;5072518;28;20057;-65
2021/08/06 04:34:35;;;;;;;17.48;5.40;;;;;;;15.98;100.00;99981.13;5072541;28;20052;-67
2021/08/06 04:37:01;;;;;;;18.33;5.55;;;;;;;15.99;100.00;99977.53;5072630;28;20063;-65
2021/08/06 04:39:26;;;;;;;17.77;5.80;;;;;;;15.93;100.00;99975.94;5072593;28;20107;-66
2021/08/06 04:41:51;;;;;;;17.50;5.28;;;;;;;15.82;100.00;99978.06;5072845;28;20032;-65
2021/08/06 04:44:17;;;;;;;17.83;5.72;;;;;;;15.90;100.00;99981.38;5070673;28;20494;-65
2021/08/06 04:46:43;;;;;;;18.38;5.55;;;;;;;15.82;100.00;99983.38;5072754;28;20078;-65
2021/08/06 04:49:09;;;;;;;19.20;5.82;;;;;;;15.88;100.00;99977.88;5072670;28;20391;-65
2021/08/06 04:51:34;;;;;;;18.08;5.63;;;;;;;15.88;100.00;99985.00;5072432;28;20418;-66
2021/08/06 04:54:00;;;;;;;17.58;5.43;;;;;;;15.86;100.00;99980.56;5072618;28;20123;-65
2021/08/06 04:56:25;;;;;;;18.58;5.55;;;;;;;15.84;100.00;99985.09;5072490;28;20021;-65
2021/08/06 04:58:51;;;;;;;17.30;5.40;;;;;;;15.82;100.00;99994.06;5072481;28;20033;-65
2021/08/06 05:01:16;;;;;;;18.13;5.93;;;;;;;15.88;100.00;99982.31;5072258;28;20064;-65
2021/08/06 05:03:41;;;;;;;17.38;5.50;;;;;;;15.83;100.00;99990.47;5072428;28;20107;-65
2021/08/06 05:06:07;;;;;;;18.52;5.78;;;;;;;15.81;100.00;99987.84;5072233;28;20029;-66
2021/08/06 05:08:32;;;;;;;17.40;5.70;;;;;;;15.83;100.00;99998.47;5072116;28;20115;-63
2021/08/06 05:10:58;;;;;;;18.38;6.10;;;;;;;15.84;100.00;99990.44;5072702;28;20028;-63
2021/08/06 05:13:23;;;;;;;18.58;6.00;;;;;;;15.86;100.00;99990.38;5071827;28;20406;-64
2021/08/06 05:15:48;;;;;;;17.70;5.88;;;;;;;15.83;100.00;99990.47;5072656;28;20475;-63
2021/08/06 05:18:13;;;;;;;19.05;6.22;;;;;;;15.87;100.00;99992.09;5068055;28;20021;-63
2021/08/06 05:20:39;;;;;;;18.60;6.28;;;;;;;15.91;100.00;99995.56;5071965;28;20032;-63
2021/08/06 05:23:04;;;;;;;18.20;6.60;;;;;;;15.86;100.00;100001.91;5072345;28;20021;-63
2021/08/06 05:25:30;;;;;;;18.27;6.28;;;;;;;15.86;100.00;99998.38;5073363;28;20032;-63
2021/08/06 05:27:55;;;;;;;19.45;6.65;;;;;;;15.86;100.00;99999.22;5075862;28;20474;-63
2021/08/06 05:30:22;;;;;;;18.88;6.63;;;;;;;15.94;100.00;100001.66;5075861;28;20379;-63
2021/08/06 05:32:49;;;;;;;19.00;7.00;;;;;;;16.00;100.00;100000.59;5074920;28;20020;-64
2021/08/06 05:35:14;;;;;;;19.80;7.50;;;;;;;16.00;100.00;100004.16;5078061;28;20035;-64
2021/08/06 05:37:40;;;;;;;20.05;7.45;;;;;;;16.04;100.00;100008.44;5081263;28;20025;-65
2021/08/06 05:40:06;;;;;;;18.90;6.85;;;;;;;15.93;100.00;100013.25;5080547;28;20464;-65
2021/08/06 05:42:32;;;;;;;18.77;7.10;;;;;;;15.95;100.00;100013.19;5080259;28;20039;-66
2021/08/06 05:44:57;;;;;;;19.23;6.82;;;;;;;15.89;100.00;100018.69;5075847;28;20016;-64
2021/08/06 05:47:22;;;;;;;18.75;6.78;;;;;;;15.81;100.00;100013.59;5079876;28;20046;-65
2021/08/06 05:49:48;;;;;;;19.13;6.40;;;;;;;15.78;100.00;100013.69;5075712;28;20051;-63
2021/08/06 05:52:13;;;;;;;19.80;6.70;;;;;;;15.75;100.00;100016.44;5078880;28;20075;-63
2021/08/06 05:54:39;;;;;;;18.85;6.65;;;;;;;15.79;100.00;100018.13;5079198;28;20071;-64
2021/08/06 05:57:04;;;;;;;19.42;7.05;;;;;;;15.77;100.00;100027.91;5081262;28;20021;-64
2021/08/06 05:59:30;;;;;;;19.10;6.60;;;;;;;15.75;100.00;100014.63;5080551;28;20109;-65
2021/08/06 06:01:55;;;;;;;19.20;6.97;;;;;;;15.76;100.00;100021.72;5073431;28;20103;-63
2021/08/06 06:04:20;;;;;;;19.73;7.05;;;;;;;15.76;100.00;100028.84;5080781;28;20348;-63
2021/08/06 06:06:46;;;;;;;19.67;7.10;;;;;;;15.78;100.00;100024.34;5077179;28;20028;-63
2021/08/06 06:09:11;;;;;;;19.88;7.07;;;;;;;15.81;100.00;100024.28;5080639;28;20039;-64
2021/08/06 06:11:37;;;;;;;20.67;7.30;;;;;;;15.86;100.00;100025.00;5080515;28;20068;-64
2021/08/06 06:14:03;;;;;;;20.00;7.57;;;;;;;15.92;100.00;100032.81;5079222;28;20129;-63
2021/08/06 06:16:28;;;;;;;19.73;6.95;;;;;;;15.92;100.00;100027.50;5077876;28;20140;-64
2021/08/06 06:18:54;;;;;;;19.50;6.78;;;;;;;15.89;100.00;100032.91;5079404;28;20033;-64
2021/08/06 06:21:20;;;;;;;18.48;6.45;;;;;;;15.88;100.00;100041.81;5080184;28;20024;-63
2021/08/06 06:23:45;;;;;;;20.48;7.38;;;;;;;15.88;100.00;100047.16;5079896;28;20356;-63
2021/08/06 06:26:10;;;;;;;20.33;6.93;;;;;;;15.90;100.00;100048.00;5080429;28;20117;-64
2021/08/06 06:28:36;;;;;;;20.38;6.93;;;;;;;15.93;100.00;100049.66;5080006;28;20451;-63
2021/08/06 06:31:02;;;;;;;20.50;6.55;;;;;;;15.94;100.00;100051.41;5079768;28;20028;-64
2021/08/06 06:33:27;;;;;;;19.08;6.25;;;;;;;15.88;100.00;100054.28;5081866;28;20634;-63
2021/08/06 06:35:53;;;;;;;19.67;6.40;;;;;;;15.87;100.00;100058.72;5081766;28;20452;-63
2021/08/06 06:38:18;;;;;;;18.48;6.05;;;;;;;15.88;100.00;100060.47;5078141;28;20771;-63
2021/08/06 06:40:44;;;;;;;19.00;6.22;;;;;;;15.84;100.00;100070.38;5081740;28;20033;-64
2021/08/06 06:43:09;;;;;;;18.95;6.25;;;;;;;15.89;100.00;100056.00;5081732;28;20027;-63
2021/08/06 06:45:34;;;;;;;18.17;5.72;;;;;;;15.94;100.00;100064.75;5080855;28;20478;-63
2021/08/06 06:48:00;;;;;;;18.55;5.80;;;;;;;16.00;100.00;100062.78;5081215;28;20024;-63
2021/08/06 06:50:28;;;;;;;18.52;5.82;;;;;;;15.99;100.00;100058.38;5077123;28;20111;-63
2021/08/06 06:52:53;;;;;;;18.08;5.40;;;;;;;16.02;100.00;100060.94;5073159;28;20413;-63
2021/08/06 06:55:20;;;;;;;18.75;5.80;;;;;;;15.97;100.00;100062.84;5079110;28;20078;-63
2021/08/06 06:57:50;;;;;;;20.63;6.15;;;;;;;16.04;100.00;100068.88;5078669;28;20016;-63
2021/08/06 07:00:17;;;;;;;19.30;5.93;;;;;;;16.04;100.00;100072.41;5077555;28;20037;-63
2021/08/06 07:02:43;;;;;;;19.30;5.82;;;;;;;16.16;100.00;100078.28;5077700;28;20035;-63
2021/08/06 07:05:10;;;;;;;19.33;6.40;;;;;;;16.27;100.00;100076.16;5078097;28;20114;-63
2021/08/06 07:07:36;;;;;;;19.33;6.70;;;;;;;16.31;100.00;100087.59;5076794;28;20031;-63
2021/08/06 07:10:02;;;;;;;18.80;6.07;;;;;;;16.38;100.00;100084.72;5077115;28;20029;-63
2021/08/06 07:12:27;;;;;;;18.75;6.28;;;;;;;16.36;100.00;100088.34;5077525;28;20047;-63
2021/08/06 07:14:52;;;;;;;20.23;6.80;;;;;;;16.46;100.00;100086.25;5074824;28;20483;-63
2021/08/06 07:17:18;;;;;;;20.88;6.43;;;;;;;16.45;100.00;100103.19;5075873;28;20494;-63
2021/08/06 07:19:43;;;;;;;20.45;6.75;;;;;;;16.43;100.00;100097.03;5073327;28;20035;-62
2021/08/06 07:22:08;;;;;;;21.27;7.10;;;;;;;16.52;100.00;100097.59;5073474;28;20027;-62
2021/08/06 07:24:34;;;;;;;20.02;6.60;;;;;;;16.59;100.00;100103.63;5073306;28;20466;-62
2021/08/06 07:26:59;;;;;;;20.83;7.25;;;;;;;16.67;100.00;100098.91;5073126;28;20070;-62
2021/08/06 07:29:25;;;;;;;21.48;7.55;;;;;;;16.75;100.00;100095.97;5073429;28;20024;-63
2021/08/06 07:31:50;;;;;;;20.73;7.45;;;;;;;16.77;100.00;100086.13;5068033;28;20025;-62
2021/08/06 07:34:16;;;;;;;23.77;7.75;;;;;;;16.77;100.00;100093.25;5068275;28;20112;-62
2021/08/06 07:36:41;;;;;;;21.35;7.63;;;;;;;16.82;100.00;100093.97;5067734;28;20032;-63
2021/08/06 07:39:06;;;;;;;21.38;7.57;;;;;;;17.03;100.00;100093.28;5067189;28;20026;-63
2021/08/06 07:41:32;;;;;;;20.58;7.30;;;;;;;17.20;100.00;100094.50;5073436;28;20027;-63
2021/08/06 07:43:58;;;;;;;20.70;7.40;;;;;;;17.21;100.00;100096.25;5073408;28;20395;-63
2021/08/06 07:46:23;;;;;;;20.02;6.70;;;;;;;17.22;100.00;100109.53;5072735;28;20375;-63
2021/08/06 07:48:48;;;;;;;19.95;6.85;;;;;;;17.14;100.00;100103.59;5072903;28;20036;-62
2021/08/06 07:51:14;;;;;;;21.90;7.53;;;;;;;17.12;100.00;100101.91;5073304;28;20032;-63
2021/08/06 07:53:39;;;;;;;19.55;7.22;;;;;;;17.16;100.00;100103.56;5073379;28;20099;-62
2021/08/06 07:56:04;;;;;;;22.48;7.60;;;;;;;17.36;100.00;100101.06;5073453;28;20129;-64
2021/08/06 07:58:30;;;;;;;20.13;7.25;;;;;;;17.64;99.80;100101.84;5073011;28;20375;-62
2021/08/06 08:00:55;;;;;;;20.70;7.28;;;;;;;17.78;100.00;100099.56;5072946;28;20028;-62
2021/08/06 08:03:20;;;;;;;18.88;6.80;;;;;;;17.83;96.41;100110.06;5073155;28;20387;-62
2021/08/06 08:05:46;;;;;;;20.38;7.15;;;;;;;17.86;96.42;100109.94;5072716;28;20028;-63
2021/08/06 08:08:11;;;;;;;20.08;7.20;;;;;;;17.73;95.78;100105.03;5072700;28;20028;-63
2021/08/06 08:10:36;;;;;;;21.58;7.40;;;;;;;17.65;96.34;100093.78;5072999;28;20028;-63
2021/08/06 08:13:02;;;;;;;20.67;7.10;;;;;;;17.71;99.16;100098.91;5072933;28;20431;-63
2021/08/06 08:15:27;;;;;;;20.80;7.28;;;;;;;17.88;97.69;100121.44;5072798;28;20123;-63
2021/08/06 08:17:53;;;;;;;21.55;7.13;;;;;;;17.98;94.41;100108.66;5072806;28;20039;-63
2021/08/06 08:20:19;;;;;;;20.33;7.30;;;;;;;18.11;93.04;100116.16;5072505;28;20032;-63
2021/08/06 08:22:44;;;;;;;20.88;7.00;;;;;;;18.19;89.52;100110.50;5073017;28;20082;-63
2021/08/06 08:25:11;;;;;;;21.27;6.93;;;;;;;18.42;90.25;100109.59;5072652;28;20060;-64
2021/08/06 08:27:36;;;;;;;20.17;7.13;;;;;;;18.76;90.09;100107.34;5069826;28;20024;-63
2021/08/06 08:30:06;;;;;;;20.85;7.18;;;;;;;19.20;85.67;100104.63;5081207;28;20048;-63
2021/08/06 08:32:31;;;;;;;19.77;6.20;;;;;;;19.42;80.21;100095.66;5074854;28;20107;-62
2021/08/06 08:34:57;;;;;;;20.20;6.22;;;;;;;19.15;79.16;100117.38;5078215;28;20112;-62
2021/08/06 08:37:22;;;;;;;19.88;5.55;;;;;;;19.03;78.93;100110.69;5075396;28;20032;-62
2021/08/06 08:39:47;;;;;;;18.90;5.40;;;;;;;19.49;77.77;100113.22;5068772;28;20094;-63
2021/08/06 08:42:14;;;;;;;19.50;5.40;;;;;;;20.02;77.33;100106.38;5071559;28;20030;-63
2021/08/06 08:44:40;;;;;;;20.15;5.60;;;;;;;19.85;76.06;100110.72;5073736;28;20483;-64
2021/08/06 08:47:06;;;;;;;17.40;5.20;;;;;;;19.40;76.54;100109.13;5071929;28;20028;-65
2021/08/06 08:49:34;;;;;;;18.00;5.13;;;;;;;19.25;79.00;100101.75;5074623;28;20020;-64
2021/08/06 08:52:00;;;;;;;19.25;5.32;;;;;;;19.36;77.37;100101.28;5069128;28;20036;-65
2021/08/06 08:54:26;;;;;;;18.45;5.13;;;;;;;19.41;77.45;100110.88;5070455;28;20020;-64
2021/08/06 08:56:52;;;;;;;19.38;5.25;;;;;;;19.55;76.27;100112.06;5073479;28;20486;-63
2021/08/06 08:59:17;;;;;;;18.98;4.97;;;;;;;19.47;74.84;100107.91;5073408;28;20020;-64
2021/08/06 09:01:43;;;;;;;18.67;4.88;;;;;;;19.76;74.88;100108.44;5076069;28;20032;-65
2021/08/06 09:04:28;;;;;;;19.60;4.90;;;;;;;19.83;75.39;100101.00;5071712;28;20021;-64
2021/08/06 09:06:55;;;;;;;19.77;4.88;;;;;;;19.72;73.71;100112.19;5074771;28;20016;-64
2021/08/06 09:09:25;;;;;;;16.60;4.90;;;;;;;19.61;75.21;100106.44;5078746;28;20081;-64
2021/08/06 09:12:01;;;;;;;20.42;5.60;;;;;;;19.48;76.05;100114.13;5079328;28;20054;-64
2021/08/06 09:14:28;;;;;;;18.83;4.90;;;;;;;19.73;76.89;100111.25;5074066;28;20052;-64
2021/08/06 09:16:58;;;;;;;18.50;4.75;;;;;;;20.04;74.28;100109.88;5075250;28;20386;-64
2021/08/06 09:19:25;;;;;;;18.48;4.80;;;;;;;20.17;73.37;100121.75;5070013;28;20025;-64
2021/08/06 09:21:50;;;;;;;18.45;4.80;;;;;;;20.04;72.20;100109.88;5071264;28;20024;-64
2021/08/06 09:24:16;;;;;;;17.98;4.32;;;;;;;19.84;70.23;100127.72;5074467;28;20032;-64
2021/08/06 09:26:44;;;;;;;16.27;4.30;;;;;;;19.64;71.06;100096.47;5075874;28;20077;-64
2021/08/06 09:29:21;;;;;;;17.05;4.25;;;;;;;19.93;71.46;100110.34;5072724;28;20418;-64
2021/08/06 09:31:52;;;;;;;15.13;4.03;;;;;;;20.27;68.67;100124.00;5071741;28;20051;-64
2021/08/06 09:34:20;;;;;;;16.20;3.70;;;;;;;20.48;65.91;100120.28;5076200;28;20035;-64
2021/08/06 09:37:08;;;;;;;14.00;3.80;;;;;;;21.11;65.08;100137.81;5074800;28;20526;-64
2021/08/06 09:39:37;;;;;;;13.65;3.47;;;;;;;21.02;63.49;100119.50;5069833;28;20029;-64
2021/08/06 09:42:05;;;;;;;15.02;3.67;;;;;;;21.07;62.53;100130.88;5073287;28;20114;-63
2021/08/06 09:44:31;;;;;;;14.52;3.70;;;;;;;21.15;62.92;100128.66;5076707;28;20033;-63
2021/08/06 09:46:58;;;;;;;12.23;3.60;;;;;;;21.31;63.46;100135.97;5079113;28;20463;-64
2021/08/06 09:49:23;;;;;;;13.90;3.72;;;;;;;21.61;61.45;100146.06;5080517;28;20032;-63
2021/08/06 09:51:52;;;;;;;14.52;3.50;;;;;;;21.32;62.54;100125.13;5075647;28;20375;-63
2021/08/06 09:54:26;;;;;;;12.45;3.70;;;;;;;21.07;63.57;100141.59;5078397;28;20028;-63
2021/08/06 09:57:05;;;;;;;14.32;3.70;;;;;;;20.64;64.72;100127.63;5081531;28;20027;-63
2021/08/06 09:59:32;;;;;;;15.50;3.90;;;;;;;20.44;65.75;100134.81;5078970;28;20056;-63
2021/08/06 10:02:24;;;;;;;16.65;3.95;;;;;;;20.70;66.01;100136.25;5082747;28;20032;-63
2021/08/06 10:05:14;;;;;;;16.00;3.72;;;;;;;20.77;64.78;100139.53;5072439;28;20036;-63
2021/08/06 10:07:46;;;;;;;17.02;4.00;;;;;;;21.04;62.81;100144.44;5078403;28;20055;-64
2021/08/06 10:10:15;;;;;;;15.50;4.10;;;;;;;20.73;64.42;100135.25;5079475;28;20078;-63
2021/08/06 10:12:41;;;;;;;14.13;4.18;;;;;;;20.54;65.93;100137.91;5081782;28;20029;-63
2021/08/06 10:15:07;;;;;;;15.52;4.10;;;;;;;20.86;64.96;100136.38;5079941;28;20070;-63
2021/08/06 10:17:33;;;;;;;17.38;4.20;;;;;;;20.87;64.94;100116.63;5078692;28;20044;-63
2021/08/06 10:19:58;;;;;;;15.82;4.00;;;;;;;20.93;64.23;100136.09;5079368;28;20093;-63
2021/08/06 10:22:24;;;;;;;13.05;3.78;;;;;;;20.80;62.45;100128.63;5081673;28;20021;-64
2021/08/06 10:24:53;;;;;;;12.30;3.70;;;;;;;20.89;62.63;100136.22;5080225;28;20028;-64
2021/08/06 10:27:22;;;;;;;11.38;3.50;;;;;;;20.74;61.55;100137.00;5078949;28;20414;-64
2021/08/06 10:30:20;;;;;;;13.48;3.65;;;;;;;20.42;64.42;100134.03;5078678;28;20474;-63
2021/08/06 10:33:05;;;;;;;13.32;3.80;;;;;;;20.53;64.16;100133.50;5017256;28;20038;-63
2021/08/06 10:35:45;;;;;;;13.32;3.75;;;;;;;20.75;63.28;100148.59;5018156;28;20079;-65
2021/08/06 10:38:12;;;;;;;14.32;3.70;;;;;;;21.11;61.03;100139.66;5018017;28;20491;-65
2021/08/06 10:40:38;;;;;;;13.23;3.70;;;;;;;21.68;59.59;100140.31;5016462;28;20034;-64
2021/08/06 10:43:09;;;;;;;10.77;3.50;;;;;;;22.19;57.74;100139.38;5017487;28;20038;-65
2021/08/06 10:45:47;;;;;;;13.63;3.33;;;;;;;22.39;57.26;100149.94;5019699;28;20034;-63
2021/08/06 10:48:30;;;;;;;10.57;3.22;;;;;;;23.09;54.83;100151.38;5012881;28;20547;-65
2021/08/06 10:51:14;;;;;;;12.63;3.28;;;;;;;23.03;56.45;100133.72;5010015;28;20570;-65
2021/08/06 10:53:55;;;;;;;15.00;3.67;;;;;;;23.49;54.47;100138.25;5019079;28;20091;-65
2021/08/06 10:56:26;;;;;;;12.25;3.30;;;;;;;23.89;52.33;100134.94;5016456;28;20396;-66
2021/08/06 10:59:10;;;;;;;13.67;3.60;;;;;;;23.23;54.21;100126.34;5021420;28;20527;-64
2021/08/06 11:01:48;;;;;;;11.02;3.30;;;;;;;22.96;54.29;100124.28;5015332;28;20026;-64
2021/08/06 11:04:16;;;;;;;12.52;3.55;;;;;;;23.05;53.86;100122.84;5016550;28;20155;-65
2021/08/06 11:06:51;;;;;;;10.38;3.30;;;;;;;22.65;54.18;100122.50;5014808;28;20550;-64
2021/08/06 11:09:26;;;;;;;14.23;3.70;;;;;;;22.13;56.85;100120.88;5040254;28;20487;-64
2021/08/06 11:12:00;;;;;;;11.43;3.55;;;;;;;21.61;57.84;100124.56;5074385;28;20043;-65
2021/08/06 11:14:28;;;;;;;14.90;3.70;;;;;;;21.21;59.25;100119.44;5080577;28;20393;-64
2021/08/06 11:17:00;;;;;;;10.80;3.63;;;;;;;20.84;61.10;100126.69;5078845;28;20108;-64